CST,Max TemperatureF,Mean TemperatureF,Min TemperatureF,Max Dew PointF,MeanDew PointF,Min DewpointF,Max Humidity, Mean Humidity, Min Humidity, Max Sea Level PressureIn, Mean Sea Level PressureIn, Min Sea Level PressureIn, Max VisibilityMiles, Mean VisibilityMiles, Min VisibilityMiles, Max Wind SpeedMPH, Mean Wind SpeedMPH, Max Gust SpeedMPH,PrecipitationIn, CloudCover, Events, WindDirDegrees
2013-11-1,49,42,37,37,35,33,90,77,57,29.87,29.63,29.43,10,10,5,10,7,16,0.00,5,,282
2013-11-2,48,39,30,36,31,28,90,75,52,30.09,30.02,29.87,10,10,7,15,5,24,0.00,1,,288
2013-11-3,54,43,33,33,32,29,89,63,40,30.09,29.97,29.87,10,10,10,24,8,38,0.00,0,,129
2013-11-4,48,40,32,42,35,30,94,76,55,30.15,29.91,29.81,10,9,5,17,10,23,0.38,5,Rain,175
2013-11-5,40,33,26,32,29,25,98,86,56,30.24,30.16,30.05,10,7,1,10,2,,0.00,4,Snow,350
2013-11-6,37,32,27,30,25,22,93,80,62,30.16,30.10,30.04,10,9,3,9,5,,0.23,4,Snow,261
2013-11-7,34,26,19,29,25,17,96,90,78,30.24,30.20,30.16,10,8,1,8,2,,0.08,3,,234
2013-11-8,42,31,20,37,27,18,95,78,53,30.19,29.89,29.59,10,9,5,15,4,22,0.02,5,Rain,135
2013-11-9,41,38,34,37,31,25,91,73,59,30.21,29.93,29.63,10,10,10,25,13,37,0.02,8,,267
2013-11-10,39,35,31,31,28,26,82,75,65,30.33,30.23,30.11,10,10,10,14,7,21,0.00,6,,238
2013-11-11,35,24,13,30,11,6,80,61,46,30.73,30.47,30.14,10,10,10,17,12,25,0.00,3,,329
2013-11-12,28,20,11,14,9,6,85,66,43,30.77,30.66,30.41,10,10,10,10,6,,0.00,0,,232
2013-11-13,50,36,21,32,24,13,81,64,46,30.40,30.05,29.87,10,10,10,17,8,23,0.00,0,,188
2013-11-14,53,42,31,37,32,29,91,77,54,29.86,29.81,29.74,10,10,10,12,2,17,0.00,2,,229
2013-11-15,54,40,26,38,33,25,95,74,48,29.84,29.75,29.61,10,9,7,10,3,17,0.00,0,,161
2013-11-16,46,42,39,45,40,33,95,88,67,29.61,29.40,29.24,10,6,0,12,7,16,0.10,4,Fog-Rain-Thunderstorm,139
2013-11-17,42,36,31,40,33,23,94,82,72,29.84,29.50,29.30,10,8,2,25,10,38,0.01,7,,263
2013-11-18,33,27,21,23,20,18,88,71,55,30.26,30.11,29.85,10,10,10,20,12,29,0.00,4,,284
2013-11-19,46,33,20,30,24,17,89,66,45,30.25,30.04,29.87,10,10,10,18,7,29,0.00,0,,127
2013-11-20,44,40,37,33,29,25,84,63,48,30.03,29.91,29.85,10,9,7,15,10,28,0.00,7,,145
2013-11-21,37,29,21,34,23,13,92,77,64,30.54,30.29,30.04,10,8,2,16,7,22,0.00,8,Snow,316
2013-11-22,33,22,9,13,8,1,84,61,29,30.66,30.54,30.44,10,10,10,17,8,25,0.00,1,,279
2013-11-23,17,11,5,3,1,-3,82,66,41,30.85,30.76,30.67,10,10,10,14,9,21,0.00,0,,297
2013-11-24,32,18,5,16,9,0,83,62,44,30.69,30.30,29.95,10,10,10,17,7,30,0.00,0,,174
2013-11-25,37,32,27,27,23,16,86,68,52,30.09,29.98,29.87,10,10,10,17,11,25,0.00,6,,259
2013-11-26,28,20,12,20,6,1,76,58,45,30.38,30.26,30.09,10,10,10,22,12,32,0.00,4,,309
2013-11-27,23,14,4,10,6,0,86,67,51,30.39,30.23,30.05,10,10,10,10,4,17,0.00,4,,146
2013-11-28,26,16,7,15,10,4,84,66,55,30.51,30.30,30.05,10,10,7,13,5,21,0.00,5,Snow,299
2013-11-29,31,18,5,20,13,2,87,71,50,30.50,30.34,30.11,10,10,10,12,4,17,0.00,2,,141
2013-11-30,39,29,19,25,22,17,91,74,57,30.18,30.07,30.02,10,10,7,8,3,,0.00,2,,276